sensor_id;sensor_type;location;lat;lon;timestamp;temperature;humidity
43151;DHT22;28755;51.478;5.702;2022-08-01T00:00:27;20.20;99.90
43151;DHT22;28755;51.478;5.702;2022-08-01T00:02:53;20.20;99.90
43151;DHT22;28755;51.478;5.702;2022-08-01T00:05:18;20.20;99.90
43151;DHT22;28755;51.478;5.702;2022-08-01T00:07:44;20.20;99.90
43151;DHT22;28755;51.478;5.702;2022-08-01T00:10:13;20.20;99.90
43151;DHT22;28755;51.478;5.702;2022-08-01T00:12:40;20.30;99.90
43151;DHT22;28755;51.478;5.702;2022-08-01T00:15:07;20.20;99.90
43151;DHT22;28755;51.478;5.702;2022-08-01T00:17:34;20.30;99.90
43151;DHT22;28755;51.478;5.702;2022-08-01T00:20:00;20.20;99.90
43151;DHT22;28755;51.478;5.702;2022-08-01T00:22:26;20.20;99.90
43151;DHT22;28755;51.478;5.702;2022-08-01T00:24:51;20.30;99.90
43151;DHT22;28755;51.478;5.702;2022-08-01T00:27:17;20.30;99.90
43151;DHT22;28755;51.478;5.702;2022-08-01T00:29:43;20.20;99.90
43151;DHT22;28755;51.478;5.702;2022-08-01T00:32:08;20.20;99.90
43151;DHT22;28755;51.478;5.702;2022-08-01T00:34:34;20.20;99.90
43151;DHT22;28755;51.478;5.702;2022-08-01T00:36:59;20.20;99.90
43151;DHT22;28755;51.478;5.702;2022-08-01T00:39:25;20.20;99.90
43151;DHT22;28755;51.478;5.702;2022-08-01T00:41:50;20.10;99.90
43151;DHT22;28755;51.478;5.702;2022-08-01T00:44:16;20.10;99.90
43151;DHT22;28755;51.478;5.702;2022-08-01T00:46:42;20.20;99.90
43151;DHT22;28755;51.478;5.702;2022-08-01T00:49:08;20.10;99.90
43151;DHT22;28755;51.478;5.702;2022-08-01T00:51:34;20.10;99.90
43151;DHT22;28755;51.478;5.702;2022-08-01T00:54:00;20.20;99.90
43151;DHT22;28755;51.478;5.702;2022-08-01T00:56:26;20.10;99.90
43151;DHT22;28755;51.478;5.702;2022-08-01T00:58:54;20.10;99.90
43151;DHT22;28755;51.478;5.702;2022-08-01T01:01:21;20.10;99.90
43151;DHT22;28755;51.478;5.702;2022-08-01T01:03:49;20.00;99.90
43151;DHT22;28755;51.478;5.702;2022-08-01T01:11:40;20.10;99.90
43151;DHT22;28755;51.478;5.702;2022-08-01T01:14:16;20.10;99.90
43151;DHT22;28755;51.478;5.702;2022-08-01T01:16:45;20.10;99.90
43151;DHT22;28755;51.478;5.702;2022-08-01T01:19:17;20.10;99.90
43151;DHT22;28755;51.478;5.702;2022-08-01T01:22:00;20.10;99.90
43151;DHT22;28755;51.478;5.702;2022-08-01T01:25:22;20.00;99.90
43151;DHT22;28755;51.478;5.702;2022-08-01T01:28:02;20.00;99.90
43151;DHT22;28755;51.478;5.702;2022-08-01T01:30:34;20.00;99.90
43151;DHT22;28755;51.478;5.702;2022-08-01T01:33:02;20.00;99.90
43151;DHT22;28755;51.478;5.702;2022-08-01T01:35:34;20.00;99.90
43151;DHT22;28755;51.478;5.702;2022-08-01T01:38:21;20.00;99.90
43151;DHT22;28755;51.478;5.702;2022-08-01T01:40:48;20.00;99.90
43151;DHT22;28755;51.478;5.702;2022-08-01T01:43:14;20.00;99.90
43151;DHT22;28755;51.478;5.702;2022-08-01T01:45:42;20.00;99.90
43151;DHT22;28755;51.478;5.702;2022-08-01T01:48:09;20.00;99.90
43151;DHT22;28755;51.478;5.702;2022-08-01T01:50:37;20.10;99.90
43151;DHT22;28755;51.478;5.702;2022-08-01T01:53:04;20.00;99.90
43151;DHT22;28755;51.478;5.702;2022-08-01T01:55:31;19.90;99.90
43151;DHT22;28755;51.478;5.702;2022-08-01T01:57:58;20.00;99.90
43151;DHT22;28755;51.478;5.702;2022-08-01T02:00:25;20.00;99.90
43151;DHT22;28755;51.478;5.702;2022-08-01T02:02:52;20.00;99.90
43151;DHT22;28755;51.478;5.702;2022-08-01T02:05:20;19.90;99.90
43151;DHT22;28755;51.478;5.702;2022-08-01T02:07:47;19.90;99.90
43151;DHT22;28755;51.478;5.702;2022-08-01T02:10:15;19.90;99.90
43151;DHT22;28755;51.478;5.702;2022-08-01T02:12:44;19.90;99.90
43151;DHT22;28755;51.478;5.702;2022-08-01T02:15:12;19.90;99.90
43151;DHT22;28755;51.478;5.702;2022-08-01T02:17:44;19.80;99.90
43151;DHT22;28755;51.478;5.702;2022-08-01T02:20:12;19.70;99.90
43151;DHT22;28755;51.478;5.702;2022-08-01T02:22:52;19.80;99.90
43151;DHT22;28755;51.478;5.702;2022-08-01T02:25:34;19.90;99.90
43151;DHT22;28755;51.478;5.702;2022-08-01T02:28:09;19.90;99.90
43151;DHT22;28755;51.478;5.702;2022-08-01T02:30:38;19.90;99.90
43151;DHT22;28755;51.478;5.702;2022-08-01T02:33:09;19.90;99.90
43151;DHT22;28755;51.478;5.702;2022-08-01T02:35:38;19.80;99.90
43151;DHT22;28755;51.478;5.702;2022-08-01T02:38:09;19.80;99.90
43151;DHT22;28755;51.478;5.702;2022-08-01T02:40:35;19.80;99.90
43151;DHT22;28755;51.478;5.702;2022-08-01T02:43:03;19.80;99.90
43151;DHT22;28755;51.478;5.702;2022-08-01T02:45:31;19.80;99.90
43151;DHT22;28755;51.478;5.702;2022-08-01T02:48:03;19.80;99.90
43151;DHT22;28755;51.478;5.702;2022-08-01T02:50:32;19.80;99.90
43151;DHT22;28755;51.478;5.702;2022-08-01T02:52:59;19.80;99.90
43151;DHT22;28755;51.478;5.702;2022-08-01T02:55:26;19.80;99.90
43151;DHT22;28755;51.478;5.702;2022-08-01T02:57:53;19.80;99.90
43151;DHT22;28755;51.478;5.702;2022-08-01T03:00:20;19.90;99.90
43151;DHT22;28755;51.478;5.702;2022-08-01T03:02:46;19.80;99.90
43151;DHT22;28755;51.478;5.702;2022-08-01T03:05:14;19.80;99.90
43151;DHT22;28755;51.478;5.702;2022-08-01T03:07:41;19.80;99.90
43151;DHT22;28755;51.478;5.702;2022-08-01T03:10:08;19.80;99.90
43151;DHT22;28755;51.478;5.702;2022-08-01T03:12:35;19.80;99.90
43151;DHT22;28755;51.478;5.702;2022-08-01T03:15:03;19.70;99.90
43151;DHT22;28755;51.478;5.702;2022-08-01T03:17:30;19.70;99.90
43151;DHT22;28755;51.478;5.702;2022-08-01T03:19:58;19.60;99.90
43151;DHT22;28755;51.478;5.702;2022-08-01T03:22:26;19.60;99.90
43151;DHT22;28755;51.478;5.702;2022-08-01T03:24:54;19.60;99.90
43151;DHT22;28755;51.478;5.702;2022-08-01T03:27:22;19.50;99.90
43151;DHT22;28755;51.478;5.702;2022-08-01T03:29:51;19.60;99.90
43151;DHT22;28755;51.478;5.702;2022-08-01T03:32:18;19.50;99.90
43151;DHT22;28755;51.478;5.702;2022-08-01T03:34:45;19.60;99.90
43151;DHT22;28755;51.478;5.702;2022-08-01T03:37:17;19.60;99.90
43151;DHT22;28755;51.478;5.702;2022-08-01T03:39:54;19.60;99.90
43151;DHT22;28755;51.478;5.702;2022-08-01T03:42:27;19.50;99.90
43151;DHT22;28755;51.478;5.702;2022-08-01T03:44:59;19.50;99.90
43151;DHT22;28755;51.478;5.702;2022-08-01T03:47:31;19.60;99.90
43151;DHT22;28755;51.478;5.702;2022-08-01T03:49:58;19.60;99.90
43151;DHT22;28755;51.478;5.702;2022-08-01T03:52:25;19.60;99.90
43151;DHT22;28755;51.478;5.702;2022-08-01T03:54:55;19.60;99.90
43151;DHT22;28755;51.478;5.702;2022-08-01T03:57:22;19.60;99.90
43151;DHT22;28755;51.478;5.702;2022-08-01T03:59:49;19.60;99.90
43151;DHT22;28755;51.478;5.702;2022-08-01T04:02:15;19.60;99.90
43151;DHT22;28755;51.478;5.702;2022-08-01T04:04:42;19.70;99.90
43151;DHT22;28755;51.478;5.702;2022-08-01T04:07:27;19.70;99.90
43151;DHT22;28755;51.478;5.702;2022-08-01T04:09:53;19.70;99.90
43151;DHT22;28755;51.478;5.702;2022-08-01T04:12:19;19.60;99.90
43151;DHT22;28755;51.478;5.702;2022-08-01T04:14:45;19.60;99.90
43151;DHT22;28755;51.478;5.702;2022-08-01T04:17:11;19.70;99.90
43151;DHT22;28755;51.478;5.702;2022-08-01T04:19:36;19.70;99.90
43151;DHT22;28755;51.478;5.702;2022-08-01T04:22:03;19.60;99.90
43151;DHT22;28755;51.478;5.702;2022-08-01T04:24:31;19.60;99.90
43151;DHT22;28755;51.478;5.702;2022-08-01T04:26:59;19.50;99.90
43151;DHT22;28755;51.478;5.702;2022-08-01T04:29:27;19.70;99.90
43151;DHT22;28755;51.478;5.702;2022-08-01T04:31:55;19.70;99.90
43151;DHT22;28755;51.478;5.702;2022-08-01T04:34:25;19.60;99.90
43151;DHT22;28755;51.478;5.702;2022-08-01T04:36:54;19.70;99.90
43151;DHT22;28755;51.478;5.702;2022-08-01T04:39:24;19.70;99.90
43151;DHT22;28755;51.478;5.702;2022-08-01T04:41:54;19.80;99.90
43151;DHT22;28755;51.478;5.702;2022-08-01T04:44:23;19.70;99.90
43151;DHT22;28755;51.478;5.702;2022-08-01T04:46:49;19.80;99.90
43151;DHT22;28755;51.478;5.702;2022-08-01T04:49:16;19.80;99.90
43151;DHT22;28755;51.478;5.702;2022-08-01T04:51:52;19.70;99.90
43151;DHT22;28755;51.478;5.702;2022-08-01T04:54:26;19.60;99.90
43151;DHT22;28755;51.478;5.702;2022-08-01T04:56:53;19.60;99.90
43151;DHT22;28755;51.478;5.702;2022-08-01T04:59:19;19.70;99.90
43151;DHT22;28755;51.478;5.702;2022-08-01T05:02:04;19.60;99.90
43151;DHT22;28755;51.478;5.702;2022-08-01T05:04:30;19.70;99.90
43151;DHT22;28755;51.478;5.702;2022-08-01T05:06:56;19.80;99.90
43151;DHT22;28755;51.478;5.702;2022-08-01T05:09:22;19.80;99.90
43151;DHT22;28755;51.478;5.702;2022-08-01T05:11:47;19.70;99.90
43151;DHT22;28755;51.478;5.702;2022-08-01T05:14:13;19.80;99.90
43151;DHT22;28755;51.478;5.702;2022-08-01T05:16:39;19.80;99.90
43151;DHT22;28755;51.478;5.702;2022-08-01T05:19:04;19.70;99.90
43151;DHT22;28755;51.478;5.702;2022-08-01T05:21:30;19.80;99.90
43151;DHT22;28755;51.478;5.702;2022-08-01T05:23:56;19.90;99.90
43151;DHT22;28755;51.478;5.702;2022-08-01T05:26:23;19.80;99.90
43151;DHT22;28755;51.478;5.702;2022-08-01T05:28:49;19.80;99.90
43151;DHT22;28755;51.478;5.702;2022-08-01T05:31:14;19.80;99.90
43151;DHT22;28755;51.478;5.702;2022-08-01T05:33:40;19.80;99.90
43151;DHT22;28755;51.478;5.702;2022-08-01T05:36:06;19.80;99.90
43151;DHT22;28755;51.478;5.702;2022-08-01T05:38:31;19.80;99.90
43151;DHT22;28755;51.478;5.702;2022-08-01T05:40:57;19.80;99.90
43151;DHT22;28755;51.478;5.702;2022-08-01T05:43:23;19.90;99.90
43151;DHT22;28755;51.478;5.702;2022-08-01T05:45:48;19.90;99.90
43151;DHT22;28755;51.478;5.702;2022-08-01T05:48:14;20.00;99.90
43151;DHT22;28755;51.478;5.702;2022-08-01T05:50:40;20.10;99.90
43151;DHT22;28755;51.478;5.702;2022-08-01T05:53:05;20.10;99.90
43151;DHT22;28755;51.478;5.702;2022-08-01T05:55:31;20.20;99.90
43151;DHT22;28755;51.478;5.702;2022-08-01T05:57:56;20.20;99.90
43151;DHT22;28755;51.478;5.702;2022-08-01T06:00:22;20.30;99.90
43151;DHT22;28755;51.478;5.702;2022-08-01T06:02:48;20.30;99.90
43151;DHT22;28755;51.478;5.702;2022-08-01T06:05:14;20.30;99.90
43151;DHT22;28755;51.478;5.702;2022-08-01T06:07:40;20.30;99.90
43151;DHT22;28755;51.478;5.702;2022-08-01T06:10:07;20.20;99.90
43151;DHT22;28755;51.478;5.702;2022-08-01T06:12:33;20.20;99.90
43151;DHT22;28755;51.478;5.702;2022-08-01T06:14:59;20.20;99.90
43151;DHT22;28755;51.478;5.702;2022-08-01T06:17:25;20.40;99.90
43151;DHT22;28755;51.478;5.702;2022-08-01T06:19:51;20.30;99.90
43151;DHT22;28755;51.478;5.702;2022-08-01T06:22:16;20.40;99.90
43151;DHT22;28755;51.478;5.702;2022-08-01T06:24:42;20.50;99.90
43151;DHT22;28755;51.478;5.702;2022-08-01T06:27:07;20.50;99.90
43151;DHT22;28755;51.478;5.702;2022-08-01T06:29:33;20.50;99.90
43151;DHT22;28755;51.478;5.702;2022-08-01T06:32:00;20.40;99.90
43151;DHT22;28755;51.478;5.702;2022-08-01T06:34:25;20.30;99.90
43151;DHT22;28755;51.478;5.702;2022-08-01T06:36:51;20.30;99.90
43151;DHT22;28755;51.478;5.702;2022-08-01T06:39:17;20.20;99.90
43151;DHT22;28755;51.478;5.702;2022-08-01T06:41:42;20.30;99.90
43151;DHT22;28755;51.478;5.702;2022-08-01T06:44:12;20.50;99.90
43151;DHT22;28755;51.478;5.702;2022-08-01T06:46:38;20.70;99.90
43151;DHT22;28755;51.478;5.702;2022-08-01T06:49:04;20.70;99.90
43151;DHT22;28755;51.478;5.702;2022-08-01T06:51:29;20.70;99.90
43151;DHT22;28755;51.478;5.702;2022-08-01T06:53:55;20.60;99.90
43151;DHT22;28755;51.478;5.702;2022-08-01T06:56:21;20.60;99.90
43151;DHT22;28755;51.478;5.702;2022-08-01T06:58:47;20.70;99.90
43151;DHT22;28755;51.478;5.702;2022-08-01T07:01:12;20.90;99.90
43151;DHT22;28755;51.478;5.702;2022-08-01T07:03:38;21.10;99.90
43151;DHT22;28755;51.478;5.702;2022-08-01T07:06:04;21.10;99.90
43151;DHT22;28755;51.478;5.702;2022-08-01T07:08:30;21.10;99.90
43151;DHT22;28755;51.478;5.702;2022-08-01T07:10:55;21.00;99.90
43151;DHT22;28755;51.478;5.702;2022-08-01T07:13:25;20.90;99.90
43151;DHT22;28755;51.478;5.702;2022-08-01T07:15:52;21.20;99.90
43151;DHT22;28755;51.478;5.702;2022-08-01T07:18:18;21.40;99.90
43151;DHT22;28755;51.478;5.702;2022-08-01T07:20:44;21.70;99.90
43151;DHT22;28755;51.478;5.702;2022-08-01T07:23:12;21.80;99.90
43151;DHT22;28755;51.478;5.702;2022-08-01T07:25:38;21.70;99.90
43151;DHT22;28755;51.478;5.702;2022-08-01T07:28:03;21.70;99.90
43151;DHT22;28755;51.478;5.702;2022-08-01T07:30:30;21.70;99.90
43151;DHT22;28755;51.478;5.702;2022-08-01T07:32:55;21.70;99.90
43151;DHT22;28755;51.478;5.702;2022-08-01T07:35:21;21.50;99.90
43151;DHT22;28755;51.478;5.702;2022-08-01T07:37:47;21.60;99.90
43151;DHT22;28755;51.478;5.702;2022-08-01T07:40:13;21.80;99.90
43151;DHT22;28755;51.478;5.702;2022-08-01T07:42:38;21.80;99.90
43151;DHT22;28755;51.478;5.702;2022-08-01T07:45:09;22.00;99.90
43151;DHT22;28755;51.478;5.702;2022-08-01T07:47:35;22.20;99.90
43151;DHT22;28755;51.478;5.702;2022-08-01T07:50:02;22.30;99.90
43151;DHT22;28755;51.478;5.702;2022-08-01T07:52:27;22.50;99.90
43151;DHT22;28755;51.478;5.702;2022-08-01T07:54:53;22.70;99.90
43151;DHT22;28755;51.478;5.702;2022-08-01T07:57:20;22.60;99.90
43151;DHT22;28755;51.478;5.702;2022-08-01T07:59:45;22.60;99.90
43151;DHT22;28755;51.478;5.702;2022-08-01T08:02:11;22.50;99.90
43151;DHT22;28755;51.478;5.702;2022-08-01T08:04:37;22.40;99.90
43151;DHT22;28755;51.478;5.702;2022-08-01T08:07:02;22.50;99.90
43151;DHT22;28755;51.478;5.702;2022-08-01T08:09:28;22.70;99.90
43151;DHT22;28755;51.478;5.702;2022-08-01T08:11:54;22.90;99.90
43151;DHT22;28755;51.478;5.702;2022-08-01T08:14:19;22.90;99.90
43151;DHT22;28755;51.478;5.702;2022-08-01T08:16:48;23.20;99.90
43151;DHT22;28755;51.478;5.702;2022-08-01T08:19:13;23.80;99.90
43151;DHT22;28755;51.478;5.702;2022-08-01T08:21:39;24.10;99.90
43151;DHT22;28755;51.478;5.702;2022-08-01T08:24:06;24.50;99.90
43151;DHT22;28755;51.478;5.702;2022-08-01T08:26:59;24.40;99.90
43151;DHT22;28755;51.478;5.702;2022-08-01T08:29:26;24.40;99.90
43151;DHT22;28755;51.478;5.702;2022-08-01T08:31:52;24.70;99.90
43151;DHT22;28755;51.478;5.702;2022-08-01T08:34:19;24.30;99.90
43151;DHT22;28755;51.478;5.702;2022-08-01T08:36:44;24.30;99.90
43151;DHT22;28755;51.478;5.702;2022-08-01T08:39:10;24.20;99.90
43151;DHT22;28755;51.478;5.702;2022-08-01T08:41:36;24.50;99.90
43151;DHT22;28755;51.478;5.702;2022-08-01T08:44:03;24.90;99.90
43151;DHT22;28755;51.478;5.702;2022-08-01T08:46:31;25.10;99.90
43151;DHT22;28755;51.478;5.702;2022-08-01T08:48:59;24.90;99.90
43151;DHT22;28755;51.478;5.702;2022-08-01T08:51:26;24.80;99.90
43151;DHT22;28755;51.478;5.702;2022-08-01T08:53:58;24.40;99.90
43151;DHT22;28755;51.478;5.702;2022-08-01T08:56:26;23.50;99.90
43151;DHT22;28755;51.478;5.702;2022-08-01T08:58:55;23.00;99.90
43151;DHT22;28755;51.478;5.702;2022-08-01T09:01:21;22.80;99.90
43151;DHT22;28755;51.478;5.702;2022-08-01T09:03:47;22.80;99.90
43151;DHT22;28755;51.478;5.702;2022-08-01T09:06:13;23.30;99.90
43151;DHT22;28755;51.478;5.702;2022-08-01T09:08:40;24.30;99.90
43151;DHT22;28755;51.478;5.702;2022-08-01T09:11:06;25.40;99.90
43151;DHT22;28755;51.478;5.702;2022-08-01T09:13:31;26.20;99.90
43151;DHT22;28755;51.478;5.702;2022-08-01T09:15:57;26.70;99.90
43151;DHT22;28755;51.478;5.702;2022-08-01T09:21:20;26.60;99.90
43151;DHT22;28755;51.478;5.702;2022-08-01T09:23:51;25.60;99.90
43151;DHT22;28755;51.478;5.702;2022-08-01T09:26:30;26.10;99.90
43151;DHT22;28755;51.478;5.702;2022-08-01T09:28:57;27.30;99.90
43151;DHT22;28755;51.478;5.702;2022-08-01T09:31:22;28.20;99.90
43151;DHT22;28755;51.478;5.702;2022-08-01T09:33:55;29.10;99.90
43151;DHT22;28755;51.478;5.702;2022-08-01T09:36:26;29.80;99.90
43151;DHT22;28755;51.478;5.702;2022-08-01T09:38:54;30.00;99.90
43151;DHT22;28755;51.478;5.702;2022-08-01T09:41:30;30.80;99.90
43151;DHT22;28755;51.478;5.702;2022-08-01T09:43:56;31.00;99.90
43151;DHT22;28755;51.478;5.702;2022-08-01T09:46:22;30.40;99.90
43151;DHT22;28755;51.478;5.702;2022-08-01T09:49:02;29.10;99.90
43151;DHT22;28755;51.478;5.702;2022-08-01T09:51:31;28.00;99.90
43151;DHT22;28755;51.478;5.702;2022-08-01T09:53:57;27.20;99.90
43151;DHT22;28755;51.478;5.702;2022-08-01T09:56:24;26.60;99.90
43151;DHT22;28755;51.478;5.702;2022-08-01T09:58:58;26.80;99.90
43151;DHT22;28755;51.478;5.702;2022-08-01T10:01:25;26.90;99.90
43151;DHT22;28755;51.478;5.702;2022-08-01T10:04:17;28.30;99.90
43151;DHT22;28755;51.478;5.702;2022-08-01T10:06:45;30.70;99.90
43151;DHT22;28755;51.478;5.702;2022-08-01T10:09:13;30.90;99.90
43151;DHT22;28755;51.478;5.702;2022-08-01T10:11:42;30.30;99.90
43151;DHT22;28755;51.478;5.702;2022-08-01T10:14:08;29.60;99.90
43151;DHT22;28755;51.478;5.702;2022-08-01T10:16:35;28.60;99.90
43151;DHT22;28755;51.478;5.702;2022-08-01T10:19:03;26.80;99.90
43151;DHT22;28755;51.478;5.702;2022-08-01T10:21:32;26.10;99.90
43151;DHT22;28755;51.478;5.702;2022-08-01T10:23:58;26.10;99.90
43151;DHT22;28755;51.478;5.702;2022-08-01T10:26:26;27.80;99.90
43151;DHT22;28755;51.478;5.702;2022-08-01T10:28:52;30.40;99.90
43151;DHT22;28755;51.478;5.702;2022-08-01T10:31:19;31.50;99.90
43151;DHT22;28755;51.478;5.702;2022-08-01T10:33:45;31.80;99.90
43151;DHT22;28755;51.478;5.702;2022-08-01T10:36:11;33.50;99.90
43151;DHT22;28755;51.478;5.702;2022-08-01T10:38:37;34.50;99.90
43151;DHT22;28755;51.478;5.702;2022-08-01T10:41:03;33.20;99.90
43151;DHT22;28755;51.478;5.702;2022-08-01T10:43:30;34.40;99.90
43151;DHT22;28755;51.478;5.702;2022-08-01T10:45:56;34.20;99.90
43151;DHT22;28755;51.478;5.702;2022-08-01T10:49:03;33.50;99.70
43151;DHT22;28755;51.478;5.702;2022-08-01T10:51:29;31.20;99.90
43151;DHT22;28755;51.478;5.702;2022-08-01T10:53:55;31.20;99.90
43151;DHT22;28755;51.478;5.702;2022-08-01T10:56:23;29.60;99.90
43151;DHT22;28755;51.478;5.702;2022-08-01T10:58:49;29.00;99.90
43151;DHT22;28755;51.478;5.702;2022-08-01T11:01:23;29.50;99.90
43151;DHT22;28755;51.478;5.702;2022-08-01T11:03:56;32.00;99.90
43151;DHT22;28755;51.478;5.702;2022-08-01T11:06:39;33.50;99.80
43151;DHT22;28755;51.478;5.702;2022-08-01T11:09:21;35.10;98.10
43151;DHT22;28755;51.478;5.702;2022-08-01T11:12:11;36.10;96.50
43151;DHT22;28755;51.478;5.702;2022-08-01T11:17:42;31.50;98.90
43151;DHT22;28755;51.478;5.702;2022-08-01T11:20:18;29.00;99.90
43151;DHT22;28755;51.478;5.702;2022-08-01T11:30:46;27.10;99.90
43151;DHT22;28755;51.478;5.702;2022-08-01T11:33:13;26.80;99.90
43151;DHT22;28755;51.478;5.702;2022-08-01T11:38:46;26.80;99.90
43151;DHT22;28755;51.478;5.702;2022-08-01T11:41:16;27.00;99.90
43151;DHT22;28755;51.478;5.702;2022-08-01T11:43:58;27.00;99.90
43151;DHT22;28755;51.478;5.702;2022-08-01T11:49:31;25.90;99.90
43151;DHT22;28755;51.478;5.702;2022-08-01T11:51:59;25.30;99.90
43151;DHT22;28755;51.478;5.702;2022-08-01T11:54:31;25.00;99.90
43151;DHT22;28755;51.478;5.702;2022-08-01T11:57:03;24.80;99.90
43151;DHT22;28755;51.478;5.702;2022-08-01T11:59:28;24.60;99.90
43151;DHT22;28755;51.478;5.702;2022-08-01T12:02:00;25.20;99.90
43151;DHT22;28755;51.478;5.702;2022-08-01T12:04:47;26.10;99.90
43151;DHT22;28755;51.478;5.702;2022-08-01T12:07:14;26.50;99.90
43151;DHT22;28755;51.478;5.702;2022-08-01T12:09:40;26.90;99.90
43151;DHT22;28755;51.478;5.702;2022-08-01T12:12:06;27.00;99.90
43151;DHT22;28755;51.478;5.702;2022-08-01T12:14:31;27.20;99.90
43151;DHT22;28755;51.478;5.702;2022-08-01T12:16:57;27.00;99.90
43151;DHT22;28755;51.478;5.702;2022-08-01T12:19:24;27.30;99.90
43151;DHT22;28755;51.478;5.702;2022-08-01T12:22:06;27.60;99.90
43151;DHT22;28755;51.478;5.702;2022-08-01T12:24:36;26.80;99.90
43151;DHT22;28755;51.478;5.702;2022-08-01T12:27:03;26.40;99.90
43151;DHT22;28755;51.478;5.702;2022-08-01T12:29:47;26.40;99.90
43151;DHT22;28755;51.478;5.702;2022-08-01T12:32:30;26.30;99.90
43151;DHT22;28755;51.478;5.702;2022-08-01T12:35:03;26.20;99.90
43151;DHT22;28755;51.478;5.702;2022-08-01T12:37:29;25.80;99.90
43151;DHT22;28755;51.478;5.702;2022-08-01T12:39:56;25.50;99.90
43151;DHT22;28755;51.478;5.702;2022-08-01T12:42:22;25.20;99.90
43151;DHT22;28755;51.478;5.702;2022-08-01T12:44:50;25.30;99.90
43151;DHT22;28755;51.478;5.702;2022-08-01T12:47:18;25.60;99.90
43151;DHT22;28755;51.478;5.702;2022-08-01T12:49:44;25.90;99.90
43151;DHT22;28755;51.478;5.702;2022-08-01T12:52:11;26.20;99.90
43151;DHT22;28755;51.478;5.702;2022-08-01T12:54:59;26.20;99.90
43151;DHT22;28755;51.478;5.702;2022-08-01T12:57:25;26.20;99.90
43151;DHT22;28755;51.478;5.702;2022-08-01T12:59:53;26.10;99.90
43151;DHT22;28755;51.478;5.702;2022-08-01T13:02:19;26.10;99.90
43151;DHT22;28755;51.478;5.702;2022-08-01T13:04:51;26.40;99.90
43151;DHT22;28755;51.478;5.702;2022-08-01T13:07:17;26.40;99.90
43151;DHT22;28755;51.478;5.702;2022-08-01T13:09:50;26.40;99.90
43151;DHT22;28755;51.478;5.702;2022-08-01T13:12:16;26.00;99.90
43151;DHT22;28755;51.478;5.702;2022-08-01T13:14:41;25.60;99.90
43151;DHT22;28755;51.478;5.702;2022-08-01T13:17:07;25.60;99.90
43151;DHT22;28755;51.478;5.702;2022-08-01T13:19:45;25.70;99.90
43151;DHT22;28755;51.478;5.702;2022-08-01T13:22:13;26.00;99.90
43151;DHT22;28755;51.478;5.702;2022-08-01T13:24:38;26.20;99.90
43151;DHT22;28755;51.478;5.702;2022-08-01T13:27:04;26.20;99.90
43151;DHT22;28755;51.478;5.702;2022-08-01T13:29:36;26.30;99.90
43151;DHT22;28755;51.478;5.702;2022-08-01T13:32:19;26.30;99.90
43151;DHT22;28755;51.478;5.702;2022-08-01T13:34:45;26.10;99.90
43151;DHT22;28755;51.478;5.702;2022-08-01T13:37:11;25.80;99.90
43151;DHT22;28755;51.478;5.702;2022-08-01T13:39:36;25.60;99.90
43151;DHT22;28755;51.478;5.702;2022-08-01T13:42:15;25.60;99.90
43151;DHT22;28755;51.478;5.702;2022-08-01T13:44:42;25.40;99.90
43151;DHT22;28755;51.478;5.702;2022-08-01T13:47:10;25.50;99.90
43151;DHT22;28755;51.478;5.702;2022-08-01T13:49:36;25.60;99.90
43151;DHT22;28755;51.478;5.702;2022-08-01T13:52:02;25.60;99.90
43151;DHT22;28755;51.478;5.702;2022-08-01T13:54:28;25.70;99.90
43151;DHT22;28755;51.478;5.702;2022-08-01T13:56:55;25.50;99.90
43151;DHT22;28755;51.478;5.702;2022-08-01T13:59:20;25.70;99.90
43151;DHT22;28755;51.478;5.702;2022-08-01T14:01:46;26.00;99.90
43151;DHT22;28755;51.478;5.702;2022-08-01T14:04:12;26.30;99.90
43151;DHT22;28755;51.478;5.702;2022-08-01T14:06:38;26.30;99.90
43151;DHT22;28755;51.478;5.702;2022-08-01T14:09:04;26.30;99.90
43151;DHT22;28755;51.478;5.702;2022-08-01T14:11:30;26.50;99.90
43151;DHT22;28755;51.478;5.702;2022-08-01T14:13:56;26.80;99.90
43151;DHT22;28755;51.478;5.702;2022-08-01T14:16:22;26.60;99.90
43151;DHT22;28755;51.478;5.702;2022-08-01T14:18:47;26.40;99.90
43151;DHT22;28755;51.478;5.702;2022-08-01T14:21:13;26.30;99.90
43151;DHT22;28755;51.478;5.702;2022-08-01T14:23:40;26.10;99.90
43151;DHT22;28755;51.478;5.702;2022-08-01T14:26:08;25.40;99.90
43151;DHT22;28755;51.478;5.702;2022-08-01T14:28:33;25.30;99.90
43151;DHT22;28755;51.478;5.702;2022-08-01T14:30:59;25.50;99.90
43151;DHT22;28755;51.478;5.702;2022-08-01T14:33:26;25.90;99.90
43151;DHT22;28755;51.478;5.702;2022-08-01T14:35:52;26.20;99.90
43151;DHT22;28755;51.478;5.702;2022-08-01T14:38:17;26.40;99.90
43151;DHT22;28755;51.478;5.702;2022-08-01T14:40:43;26.40;99.90
43151;DHT22;28755;51.478;5.702;2022-08-01T14:43:12;26.20;99.90
43151;DHT22;28755;51.478;5.702;2022-08-01T14:45:38;26.00;99.90
43151;DHT22;28755;51.478;5.702;2022-08-01T14:48:04;25.60;99.90
43151;DHT22;28755;51.478;5.702;2022-08-01T14:50:29;25.50;99.90
43151;DHT22;28755;51.478;5.702;2022-08-01T14:52:56;25.20;99.90
43151;DHT22;28755;51.478;5.702;2022-08-01T14:55:22;25.20;99.90
43151;DHT22;28755;51.478;5.702;2022-08-01T14:57:50;25.50;99.90
43151;DHT22;28755;51.478;5.702;2022-08-01T15:00:16;25.70;99.90
43151;DHT22;28755;51.478;5.702;2022-08-01T15:02:42;25.80;99.90
43151;DHT22;28755;51.478;5.702;2022-08-01T15:05:09;26.00;99.90
43151;DHT22;28755;51.478;5.702;2022-08-01T15:07:35;26.30;99.90
43151;DHT22;28755;51.478;5.702;2022-08-01T15:10:03;26.40;99.90
43151;DHT22;28755;51.478;5.702;2022-08-01T15:12:29;26.50;99.90
43151;DHT22;28755;51.478;5.702;2022-08-01T15:14:55;26.40;99.90
43151;DHT22;28755;51.478;5.702;2022-08-01T15:17:26;26.20;99.90
43151;DHT22;28755;51.478;5.702;2022-08-01T15:19:55;25.30;99.90
43151;DHT22;28755;51.478;5.702;2022-08-01T15:22:22;25.20;99.90
43151;DHT22;28755;51.478;5.702;2022-08-01T15:24:48;25.40;99.90
43151;DHT22;28755;51.478;5.702;2022-08-01T15:27:14;25.60;99.90
43151;DHT22;28755;51.478;5.702;2022-08-01T15:29:40;25.60;99.90
43151;DHT22;28755;51.478;5.702;2022-08-01T15:32:07;25.90;99.90
43151;DHT22;28755;51.478;5.702;2022-08-01T15:34:34;25.90;99.90
43151;DHT22;28755;51.478;5.702;2022-08-01T15:37:00;25.80;99.90
43151;DHT22;28755;51.478;5.702;2022-08-01T15:39:26;26.00;99.90
43151;DHT22;28755;51.478;5.702;2022-08-01T15:41:52;26.10;99.90
43151;DHT22;28755;51.478;5.702;2022-08-01T15:44:18;26.10;99.90
43151;DHT22;28755;51.478;5.702;2022-08-01T15:46:46;26.10;99.90
43151;DHT22;28755;51.478;5.702;2022-08-01T15:49:12;26.30;99.90
43151;DHT22;28755;51.478;5.702;2022-08-01T15:51:37;26.20;99.90
43151;DHT22;28755;51.478;5.702;2022-08-01T15:54:03;25.80;99.90
43151;DHT22;28755;51.478;5.702;2022-08-01T15:56:33;25.50;99.90
43151;DHT22;28755;51.478;5.702;2022-08-01T15:58:59;25.70;99.90
43151;DHT22;28755;51.478;5.702;2022-08-01T16:01:25;25.80;99.90